Time;durP1;ratioP1;P1;durP2;ratioP2;P2;SDS_P1;SDS_P2;PMS_P1;PMS_P2;Temp;Humidity;BMP_temperature;BMP_pressure;BME280_temperature;BME280_humidity;BME280_pressure;Samples;Min_cycle;Max_cycle;Signal;HPM_P1;HPM_P2
2021/09/07 00:00:58;;;;;;;14.10;7.37;;;;;;;11.76;100.00;94533.91;5072305;28;20206;-79
2021/09/07 00:03:24;;;;;;;16.13;7.73;;;;;;;11.77;100.00;94540.75;5072269;28;20676;-78
2021/09/07 00:05:51;;;;;;;19.43;8.10;;;;;;;11.75;100.00;94533.09;5071914;28;20552;-77
2021/09/07 00:08:17;;;;;;;15.57;7.33;;;;;;;11.77;100.00;94535.50;5072260;28;20210;-78
2021/09/07 00:10:45;;;;;;;16.80;7.87;;;;;;;11.71;100.00;94531.03;5072210;28;20195;-78
2021/09/07 00:13:12;;;;;;;13.70;7.60;;;;;;;11.62;100.00;94528.56;5072133;28;20230;-78
2021/09/07 00:15:38;;;;;;;17.83;7.70;;;;;;;11.57;100.00;94525.69;5072282;28;20210;-77
2021/09/07 00:18:05;;;;;;;14.03;7.60;;;;;;;11.59;100.00;94521.09;5073904;28;20227;-78
2021/09/07 00:20:31;;;;;;;15.57;7.53;;;;;;;11.54;100.00;94520.03;5073726;28;20195;-78
2021/09/07 00:22:58;;;;;;;15.97;7.17;;;;;;;11.59;100.00;94517.66;5075723;28;20210;-78
2021/09/07 00:25:25;;;;;;;16.33;8.20;;;;;;;11.52;100.00;94511.56;5075777;28;20210;-78
2021/09/07 00:27:53;;;;;;;15.27;7.77;;;;;;;11.57;100.00;94520.44;5075559;28;20214;-77
2021/09/07 00:30:19;;;;;;;16.70;7.85;;;;;;;11.52;100.00;94519.41;5075389;28;20434;-78
2021/09/07 00:32:46;;;;;;;15.03;8.10;;;;;;;11.53;100.00;94527.06;5075260;28;20229;-78
2021/09/07 00:35:15;;;;;;;16.53;7.57;;;;;;;11.51;100.00;94520.38;5075661;28;20206;-78
2021/09/07 00:37:42;;;;;;;13.00;6.90;;;;;;;11.46;100.00;94521.78;5075489;28;20203;-77
2021/09/07 00:40:11;;;;;;;12.47;7.40;;;;;;;11.38;100.00;94519.28;5075455;28;20214;-77
2021/09/07 00:42:39;;;;;;;15.60;8.82;;;;;;;11.36;100.00;94512.59;5074398;28;20793;-77
2021/09/07 00:45:10;;;;;;;13.80;8.00;;;;;;;11.28;100.00;94524.00;5075015;28;20241;-78
2021/09/07 00:47:36;;;;;;;14.60;7.60;;;;;;;11.25;100.00;94514.72;5075520;28;20229;-78
2021/09/07 00:50:03;;;;;;;15.57;7.23;;;;;;;11.26;100.00;94507.72;5074976;28;20680;-78
2021/09/07 00:52:30;;;;;;;15.90;8.07;;;;;;;11.21;100.00;94515.31;5075208;28;20672;-78
2021/09/07 00:54:59;;;;;;;16.80;7.60;;;;;;;11.17;100.00;94514.84;5074899;28;20561;-78
2021/09/07 00:57:26;;;;;;;14.30;7.60;;;;;;;11.29;100.00;94508.16;5074974;28;20325;-78
2021/09/07 00:59:53;;;;;;;16.00;7.67;;;;;;;11.27;100.00;94498.84;5074840;28;20543;-77
2021/09/07 01:02:22;;;;;;;17.07;8.13;;;;;;;11.23;100.00;94503.66;5074966;28;20222;-77
2021/09/07 01:04:48;;;;;;;13.97;7.63;;;;;;;11.11;100.00;94500.72;5074903;28;20203;-78
2021/09/07 01:07:15;;;;;;;14.10;8.20;;;;;;;11.15;100.00;94500.34;5074854;28;20205;-78
2021/09/07 01:09:41;;;;;;;13.43;7.33;;;;;;;11.18;100.00;94500.78;5074817;28;20226;-78
2021/09/07 01:12:09;;;;;;;13.33;7.17;;;;;;;11.08;100.00;94501.09;5074683;28;20203;-77
2021/09/07 01:14:38;;;;;;;14.00;7.90;;;;;;;11.05;100.00;94511.09;5074569;28;20553;-78
2021/09/07 01:17:11;;;;;;;13.73;7.53;;;;;;;10.83;100.00;94505.03;5074718;28;20244;-78
2021/09/07 01:19:39;;;;;;;14.33;8.20;;;;;;;10.73;100.00;94503.53;5074467;28;20198;-78
2021/09/07 01:22:42;;;;;;;14.83;7.43;;;;;;;10.87;100.00;94503.66;5624198;22;20227;-80
2021/09/07 01:25:12;;;;;;;14.87;8.27;;;;;;;10.81;100.00;94507.00;4984285;28;20205;-79
2021/09/07 01:27:39;;;;;;;13.60;7.47;;;;;;;10.85;100.00;94503.06;4975501;28;20209;-77
2021/09/07 01:30:09;;;;;;;14.07;7.53;;;;;;;10.93;100.00;94498.53;4992054;28;20582;-77
2021/09/07 01:32:38;;;;;;;13.27;7.33;;;;;;;11.08;100.00;94500.28;4994859;28;20198;-77
2021/09/07 01:35:08;;;;;;;14.13;7.20;;;;;;;11.22;100.00;94502.03;4994875;28;20214;-78
2021/09/07 01:37:38;;;;;;;14.83;7.90;;;;;;;11.11;100.00;94499.94;4994718;28;20563;-80
2021/09/07 01:40:07;;;;;;;14.40;7.57;;;;;;;11.02;100.00;94499.22;4994662;28;20208;-78
2021/09/07 01:42:41;;;;;;;12.03;6.63;;;;;;;10.78;100.00;94499.56;4992843;28;20280;-78
2021/09/07 01:45:09;;;;;;;17.93;7.83;;;;;;;10.68;100.00;94499.84;4994380;28;20222;-78
2021/09/07 01:47:38;;;;;;;13.37;7.43;;;;;;;10.87;100.00;94498.44;4994267;28;20228;-79
2021/09/07 01:50:05;;;;;;;13.63;7.27;;;;;;;10.92;100.00;94494.31;4994482;28;20607;-77
2021/09/07 01:52:31;;;;;;;19.07;7.70;;;;;;;10.72;100.00;94496.69;4994675;28;20210;-78
2021/09/07 01:55:01;;;;;;;13.57;7.10;;;;;;;10.52;100.00;94490.41;4994430;28;20659;-79
2021/09/07 01:57:27;;;;;;;13.73;8.40;;;;;;;10.44;100.00;94500.94;4991758;28;20198;-78
2021/09/07 01:59:58;;;;;;;14.30;7.20;;;;;;;10.23;100.00;94493.84;4994305;28;20206;-78
2021/09/07 02:02:24;;;;;;;20.10;7.80;;;;;;;10.19;100.00;94495.97;4993963;28;20209;-78
2021/09/07 02:04:50;;;;;;;13.43;8.13;;;;;;;10.25;100.00;94499.69;4994111;28;20205;-78
2021/09/07 02:07:17;;;;;;;19.97;7.83;;;;;;;10.46;100.00;94496.34;4994419;28;20236;-77
2021/09/07 02:09:44;;;;;;;14.57;7.77;;;;;;;10.67;100.00;94504.25;4994006;28;20347;-80
2021/09/07 02:12:11;;;;;;;14.00;7.57;;;;;;;10.83;100.00;94497.22;4985027;28;20542;-80
2021/09/07 02:14:37;;;;;;;16.83;8.07;;;;;;;10.68;100.00;94494.63;4974371;28;20253;-77
2021/09/07 02:17:07;;;;;;;16.83;7.67;;;;;;;10.86;100.00;94491.63;4977065;28;20209;-77
2021/09/07 02:19:33;;;;;;;15.60;7.73;;;;;;;10.79;100.00;94480.28;4993887;28;20201;-79
2021/09/07 02:22:00;;;;;;;15.63;8.30;;;;;;;10.73;100.00;94482.63;4993844;28;20205;-77
2021/09/07 02:24:26;;;;;;;14.97;7.63;;;;;;;10.67;100.00;94482.56;5023330;28;20242;-79
2021/09/07 02:26:53;;;;;;;15.50;7.70;;;;;;;10.58;100.00;94484.47;5032528;28;20196;-77
2021/09/07 02:29:19;;;;;;;12.80;7.60;;;;;;;10.54;100.00;94485.81;5032496;28;20211;-78
2021/09/07 02:31:46;;;;;;;17.63;7.73;;;;;;;10.34;100.00;94480.34;5032578;28;20203;-78
2021/09/07 02:34:14;;;;;;;17.90;8.03;;;;;;;10.38;100.00;94483.41;5032932;28;20208;-77
2021/09/07 02:36:46;;;;;;;13.63;6.97;;;;;;;10.64;100.00;94480.31;5032036;28;20647;-78
2021/09/07 02:39:14;;;;;;;12.40;7.43;;;;;;;10.65;100.00;94484.53;5032490;28;20200;-77
2021/09/07 02:41:40;;;;;;;16.53;8.37;;;;;;;10.66;100.00;94489.59;5032686;28;20199;-76
2021/09/07 02:44:07;;;;;;;16.50;7.63;;;;;;;10.89;100.00;94476.38;5032408;28;20705;-79
2021/09/07 02:46:33;;;;;;;13.83;7.73;;;;;;;10.85;100.00;94474.31;5033289;28;20235;-77
2021/09/07 02:49:00;;;;;;;13.90;7.70;;;;;;;10.86;100.00;94470.72;5033050;28;20204;-79
2021/09/07 02:51:28;;;;;;;15.63;8.00;;;;;;;10.71;100.00;94466.34;5032965;28;20208;-77
2021/09/07 02:53:54;;;;;;;14.50;7.77;;;;;;;10.43;100.00;94475.84;5032332;28;20200;-78
2021/09/07 02:56:21;;;;;;;14.53;7.40;;;;;;;10.21;100.00;94472.31;5032930;28;20203;-77
2021/09/07 02:58:47;;;;;;;14.18;8.27;;;;;;;9.99;100.00;94460.00;5031672;28;20440;-80
2021/09/07 03:01:14;;;;;;;16.40;8.37;;;;;;;10.06;100.00;94469.69;5032961;28;20204;-80
2021/09/07 03:03:43;;;;;;;14.40;8.13;;;;;;;10.06;100.00;94469.69;5032699;28;20293;-78
2021/09/07 03:06:10;;;;;;;14.30;7.97;;;;;;;10.02;100.00;94461.41;5032929;28;20593;-77
2021/09/07 03:08:38;;;;;;;17.77;8.87;;;;;;;9.91;100.00;94465.31;5032881;28;20207;-80
2021/09/07 03:11:05;;;;;;;17.97;8.27;;;;;;;9.76;100.00;94469.69;5032660;28;20266;-79
2021/09/07 03:13:31;;;;;;;16.93;8.17;;;;;;;9.68;100.00;94461.97;5032806;28;20208;-77
2021/09/07 03:15:58;;;;;;;15.07;8.17;;;;;;;9.70;100.00;94462.59;5032816;28;20278;-78
2021/09/07 03:18:24;;;;;;;17.83;9.27;;;;;;;9.78;100.00;94465.13;5032712;28;20200;-77
2021/09/07 03:20:51;;;;;;;22.00;9.33;;;;;;;10.14;100.00;94461.78;5032827;28;20557;-79
2021/09/07 03:23:18;;;;;;;17.40;9.40;;;;;;;10.52;100.00;94464.31;5032602;28;20341;-77
2021/09/07 03:25:46;;;;;;;15.63;8.50;;;;;;;10.80;100.00;94466.22;5032601;28;20605;-80
2021/09/07 03:28:13;;;;;;;16.17;8.67;;;;;;;10.91;100.00;94463.94;5032721;28;20203;-79
2021/09/07 03:30:40;;;;;;;16.90;7.77;;;;;;;10.86;100.00;94457.66;5032600;28;20215;-80
2021/09/07 03:33:06;;;;;;;13.57;8.00;;;;;;;10.76;100.00;94459.75;5032575;28;20662;-79
2021/09/07 03:35:33;;;;;;;13.53;8.00;;;;;;;10.73;100.00;94464.34;5032560;28;20673;-79
2021/09/07 03:38:00;;;;;;;18.92;9.60;;;;;;;10.68;100.00;94455.47;5031808;28;20966;-80
2021/09/07 03:40:26;;;;;;;13.70;8.13;;;;;;;10.56;100.00;94460.34;5032376;28;20208;-79
2021/09/07 03:42:54;;;;;;;15.83;8.10;;;;;;;10.39;100.00;94453.69;5032612;28;20204;-80
2021/09/07 03:45:21;;;;;;;15.07;7.50;;;;;;;10.14;100.00;94461.78;5032630;28;20223;-79
2021/09/07 03:47:47;;;;;;;12.53;7.33;;;;;;;9.91;100.00;94462.69;5032741;28;20291;-79
2021/09/07 03:50:16;;;;;;;16.57;8.20;;;;;;;9.92;100.00;94453.88;5032537;28;20664;-80
2021/09/07 03:52:43;;;;;;;15.27;8.57;;;;;;;9.99;100.00;94449.56;5035643;28;20203;-79
2021/09/07 03:55:10;;;;;;;15.57;9.03;;;;;;;10.10;100.00;94452.72;5034942;28;20294;-79
2021/09/07 03:57:37;;;;;;;16.83;9.17;;;;;;;10.16;100.00;94450.19;5035869;28;20558;-79
2021/09/07 04:00:07;;;;;;;20.20;8.97;;;;;;;10.03;100.00;94450.00;5036248;28;20219;-79
2021/09/07 04:02:33;;;;;;;17.83;8.83;;;;;;;10.21;100.00;94451.44;5035837;28;20208;-79
2021/09/07 04:05:00;;;;;;;14.83;8.53;;;;;;;10.13;100.00;94450.53;5036182;28;20227;-79
2021/09/07 04:07:26;;;;;;;17.70;9.00;;;;;;;10.17;100.00;94446.59;5036111;28;20244;-79
2021/09/07 04:09:53;;;;;;;21.93;9.63;;;;;;;10.15;100.00;94452.97;5036330;28;20258;-79
2021/09/07 04:12:19;;;;;;;17.07;8.77;;;;;;;10.06;100.00;94449.66;5036016;28;20274;-80
2021/09/07 04:14:46;;;;;;;13.97;8.23;;;;;;;9.85;100.00;94447.75;5035873;28;20204;-79
2021/09/07 04:17:13;;;;;;;16.77;7.43;;;;;;;9.52;100.00;94445.47;5035769;28;20201;-80
2021/09/07 04:19:40;;;;;;;14.57;8.13;;;;;;;9.36;100.00;94453.41;5034900;28;20242;-79
2021/09/07 04:22:06;;;;;;;15.30;8.33;;;;;;;9.30;100.00;94448.94;5017699;28;20225;-79
2021/09/07 04:24:33;;;;;;;17.47;9.73;;;;;;;9.34;100.00;94452.78;5015401;28;20475;-80
2021/09/07 04:26:59;;;;;;;18.57;9.13;;;;;;;9.37;100.00;94452.44;5015929;28;20454;-79
2021/09/07 04:29:26;;;;;;;17.47;9.07;;;;;;;9.41;100.00;94451.13;5015853;28;20258;-80
2021/09/07 04:31:52;;;;;;;19.90;9.73;;;;;;;9.48;100.00;94452.03;5015937;28;20255;-79
2021/09/07 04:34:20;;;;;;;17.20;8.77;;;;;;;9.37;100.00;94453.25;5015900;28;20197;-79
2021/09/07 04:36:47;;;;;;;18.90;9.97;;;;;;;9.52;100.00;94453.28;5015740;28;20201;-79
2021/09/07 04:39:13;;;;;;;20.97;11.57;;;;;;;9.65;100.00;94454.47;5015776;28;20207;-79
2021/09/07 04:41:40;;;;;;;20.43;10.20;;;;;;;9.72;100.00;94453.56;5015887;28;20254;-79
2021/09/07 04:44:06;;;;;;;19.90;10.80;;;;;;;9.86;100.00;94453.75;5015543;28;20228;-79
2021/09/07 04:46:33;;;;;;;20.57;10.80;;;;;;;9.91;100.00;94444.44;5015757;28;20571;-80
2021/09/07 04:48:59;;;;;;;23.33;11.77;;;;;;;10.06;100.00;94446.22;5015375;28;20205;-80
2021/09/07 04:51:27;;;;;;;19.17;10.73;;;;;;;10.08;100.00;94452.09;5015500;28;20709;-80
2021/09/07 04:53:56;;;;;;;23.80;11.67;;;;;;;10.41;100.00;94462.97;5015542;28;20228;-80
2021/09/07 04:56:22;;;;;;;21.30;10.57;;;;;;;10.45;100.00;94460.81;5015372;28;20224;-80
2021/09/07 04:58:50;;;;;;;19.00;10.73;;;;;;;10.58;100.00;94458.34;5013879;28;20205;-80
2021/09/07 05:01:17;;;;;;;19.07;11.03;;;;;;;10.60;100.00;94460.78;5015238;28;20201;-80
2021/09/07 05:03:43;;;;;;;18.30;9.70;;;;;;;10.59;100.00;94464.38;5014301;28;20228;-79
2021/09/07 05:06:10;;;;;;;20.13;9.80;;;;;;;10.68;100.00;94468.50;5015284;28;20208;-79
2021/09/07 05:08:37;;;;;;;17.27;10.07;;;;;;;10.77;100.00;94463.97;5015240;28;20244;-79
2021/09/07 05:11:04;;;;;;;21.20;10.53;;;;;;;10.91;100.00;94471.78;5015209;28;20557;-80
2021/09/07 05:13:30;;;;;;;21.20;10.50;;;;;;;11.07;100.00;94470.75;5015130;28;20215;-79
2021/09/07 05:15:57;;;;;;;20.47;9.30;;;;;;;11.07;100.00;94472.53;5014925;28;20208;-79
2021/09/07 05:18:24;;;;;;;18.00;8.63;;;;;;;11.06;100.00;94471.72;5028359;28;20192;-79
2021/09/07 05:20:50;;;;;;;19.53;10.00;;;;;;;11.21;100.00;94465.66;5034654;28;20570;-79
2021/09/07 05:23:17;;;;;;;17.27;9.23;;;;;;;11.24;100.00;94473.91;5034512;28;20232;-80
2021/09/07 05:25:45;;;;;;;17.37;9.43;;;;;;;11.32;100.00;94470.34;5034462;28;20238;-79
2021/09/07 05:28:11;;;;;;;15.40;8.23;;;;;;;11.32;100.00;94469.56;5034355;28;20646;-78
2021/09/07 05:30:37;;;;;;;15.80;8.70;;;;;;;11.30;100.00;94469.75;5034406;28;20200;-79
2021/09/07 05:33:05;;;;;;;16.97;8.83;;;;;;;11.39;100.00;94463.41;5034191;28;21458;-79
2021/09/07 05:35:32;;;;;;;19.27;10.23;;;;;;;11.44;100.00;94468.88;5034518;28;20204;-79
2021/09/07 05:37:58;;;;;;;18.10;10.10;;;;;;;11.56;100.00;94452.66;5034143;28;20251;-79
2021/09/07 05:40:25;;;;;;;18.30;9.13;;;;;;;11.68;100.00;94458.19;5034161;28;20720;-80
2021/09/07 05:42:52;;;;;;;18.27;9.40;;;;;;;11.94;100.00;94462.81;5034310;28;20200;-80
2021/09/07 05:45:19;;;;;;;13.93;8.20;;;;;;;12.08;100.00;94461.09;5033985;28;20563;-79
2021/09/07 05:47:46;;;;;;;16.60;8.53;;;;;;;12.18;100.00;94470.22;5034314;28;20208;-79
2021/09/07 05:50:14;;;;;;;17.80;9.00;;;;;;;12.29;100.00;94475.91;5034196;28;20308;-79
2021/09/07 05:52:41;;;;;;;15.47;8.70;;;;;;;12.43;100.00;94476.78;5034079;28;20214;-79
2021/09/07 05:55:09;;;;;;;15.77;8.77;;;;;;;12.54;100.00;94473.59;5033989;28;20657;-79
2021/09/07 05:57:35;;;;;;;16.30;8.93;;;;;;;12.69;100.00;94476.06;5033616;28;20495;-80
2021/09/07 06:00:05;;;;;;;15.17;8.53;;;;;;;12.81;100.00;94474.53;5033884;28;20449;-79
2021/09/07 06:02:32;;;;;;;17.30;8.50;;;;;;;12.94;100.00;94477.19;5033912;28;20196;-79
2021/09/07 06:04:58;;;;;;;12.10;7.27;;;;;;;13.04;100.00;94479.44;5033852;28;20230;-80
2021/09/07 06:07:27;;;;;;;12.23;7.30;;;;;;;13.11;100.00;94487.31;5033779;28;20255;-79
2021/09/07 06:09:53;;;;;;;15.43;7.97;;;;;;;13.20;100.00;94483.47;5032481;28;20211;-79
2021/09/07 06:12:20;;;;;;;15.77;7.95;;;;;;;13.38;100.00;94487.38;5033476;28;20204;-78
2021/09/07 06:14:46;;;;;;;12.23;7.20;;;;;;;13.48;100.00;94493.03;5032647;28;20745;-78
2021/09/07 06:17:14;;;;;;;12.23;7.10;;;;;;;13.49;100.00;94494.69;5033643;28;20244;-78
2021/09/07 06:19:40;;;;;;;15.68;7.40;;;;;;;13.53;100.00;94493.25;5033464;28;20208;-78
2021/09/07 06:22:07;;;;;;;13.43;7.53;;;;;;;13.65;100.00;94494.25;5033608;28;20298;-78
2021/09/07 06:24:34;;;;;;;13.13;7.18;;;;;;;13.86;100.00;94495.09;5030014;28;20594;-79
2021/09/07 06:27:00;;;;;;;18.40;7.68;;;;;;;13.95;100.00;94496.47;5033394;28;20621;-79
2021/09/07 06:29:27;;;;;;;11.93;7.03;;;;;;;14.03;100.00;94498.91;5033509;28;20207;-78
2021/09/07 06:31:53;;;;;;;12.93;6.93;;;;;;;14.20;100.00;94495.84;5033941;28;20202;-78
2021/09/07 06:34:24;;;;;;;12.52;7.60;;;;;;;14.34;100.00;94494.00;5033503;28;20238;-77
2021/09/07 06:36:51;;;;;;;11.57;6.53;;;;;;;14.51;100.00;94499.63;5033291;28;20204;-78
2021/09/07 06:39:17;;;;;;;12.18;6.95;;;;;;;14.61;100.00;94500.81;5033188;28;20231;-78
2021/09/07 06:41:44;;;;;;;14.25;6.70;;;;;;;14.88;100.00;94502.56;5032988;28;20215;-77
2021/09/07 06:44:10;;;;;;;11.07;6.75;;;;;;;15.02;100.00;94500.66;5033080;28;20306;-76
2021/09/07 06:46:37;;;;;;;13.27;7.00;;;;;;;15.33;100.00;94513.06;5033062;28;20207;-76
2021/09/07 06:49:04;;;;;;;12.90;6.50;;;;;;;15.73;100.00;94512.78;5032955;28;20324;-76
2021/09/07 06:51:33;;;;;;;10.68;6.40;;;;;;;16.00;100.00;94516.03;5033024;28;20200;-76
2021/09/07 06:54:01;;;;;;;12.07;6.68;;;;;;;16.06;100.00;94519.66;5032687;28;20211;-76
2021/09/07 06:56:28;;;;;;;12.07;6.03;;;;;;;16.04;100.00;94514.59;5032723;28;20208;-76
2021/09/07 06:58:54;;;;;;;11.25;6.18;;;;;;;16.12;100.00;94523.25;5032250;28;20240;-76
2021/09/07 07:01:21;;;;;;;13.35;6.80;;;;;;;16.39;100.00;94511.44;5033090;28;20204;-76
2021/09/07 07:03:47;;;;;;;14.98;6.60;;;;;;;16.53;100.00;94513.94;5032844;28;20208;-76
2021/09/07 07:06:14;;;;;;;14.30;6.60;;;;;;;16.63;100.00;94508.97;5032867;28;20211;-76
2021/09/07 07:08:42;;;;;;;10.75;6.22;;;;;;;16.78;100.00;94504.13;5032746;28;20208;-76
2021/09/07 07:11:08;;;;;;;11.77;6.53;;;;;;;16.92;100.00;94509.28;5032986;28;20204;-75
2021/09/07 07:13:35;;;;;;;10.25;5.95;;;;;;;17.17;97.07;94512.63;5032992;28;20249;-76
2021/09/07 07:16:01;;;;;;;10.90;6.10;;;;;;;17.46;93.59;94507.56;5032937;28;20539;-76
2021/09/07 07:18:28;;;;;;;11.35;6.85;;;;;;;17.46;93.67;94509.41;5032742;28;20203;-76
2021/09/07 07:20:54;;;;;;;11.70;6.10;;;;;;;17.54;94.24;94512.50;5032828;28;20212;-76
2021/09/07 07:23:21;;;;;;;10.90;6.50;;;;;;;17.85;89.52;94507.19;5032483;28;20235;-76
2021/09/07 07:25:48;;;;;;;9.93;6.63;;;;;;;18.18;88.23;94504.03;5032838;28;20286;-75
2021/09/07 07:28:15;;;;;;;9.07;5.38;;;;;;;18.61;88.94;94505.50;5036621;28;20222;-76
2021/09/07 07:30:41;;;;;;;10.75;6.18;;;;;;;18.79;86.36;94506.41;5035710;28;20437;-76
2021/09/07 07:33:10;;;;;;;11.43;6.32;;;;;;;18.78;84.73;94499.50;5036735;28;20211;-76
2021/09/07 07:35:36;;;;;;;8.77;5.47;;;;;;;18.73;85.26;94505.47;5036610;28;20195;-76
2021/09/07 07:38:06;;;;;;;10.25;6.13;;;;;;;18.55;84.58;94500.34;5036496;28;20234;-76
2021/09/07 07:40:32;;;;;;;13.10;6.18;;;;;;;18.23;84.65;94498.84;5036484;28;20204;-76
2021/09/07 07:43:01;;;;;;;12.55;6.70;;;;;;;18.22;85.58;94507.00;5036543;28;20210;-76
2021/09/07 07:45:29;;;;;;;12.88;6.55;;;;;;;18.21;85.03;94511.50;5036469;28;20314;-76
2021/09/07 07:47:56;;;;;;;11.38;6.15;;;;;;;18.19;82.26;94515.44;5036140;28;20196;-76
2021/09/07 07:50:22;;;;;;;13.52;6.15;;;;;;;18.27;83.33;94515.88;5035890;28;20250;-77
2021/09/07 07:52:52;;;;;;;10.73;6.20;;;;;;;18.43;80.99;94513.56;5036375;28;20207;-77
2021/09/07 07:55:21;;;;;;;21.38;6.38;;;;;;;18.34;81.20;94522.91;5036128;28;20670;-79
2021/09/07 07:57:47;;;;;;;10.93;6.03;;;;;;;18.49;81.99;94524.03;5036263;28;20200;-77
2021/09/07 08:00:18;;;;;;;11.52;6.30;;;;;;;18.55;79.77;94524.97;5036267;28;20204;-78
2021/09/07 08:02:44;;;;;;;11.85;6.15;;;;;;;18.69;81.27;94530.81;5036049;28;20717;-78
2021/09/07 08:05:14;;;;;;;15.45;5.88;;;;;;;18.80;77.21;94537.94;5035965;28;20582;-77
2021/09/07 08:07:40;;;;;;;9.73;5.63;;;;;;;18.92;77.83;94535.28;5036202;28;20254;-78
2021/09/07 08:10:07;;;;;;;9.05;5.88;;;;;;;19.12;77.59;94534.88;5035968;28;20204;-78
2021/09/07 08:12:34;;;;;;;10.45;5.93;;;;;;;19.29;77.00;94534.94;5035956;28;20680;-78
2021/09/07 08:15:03;;;;;;;9.77;5.97;;;;;;;19.64;75.60;94538.50;5035839;28;20212;-78
2021/09/07 08:17:31;;;;;;;8.77;5.78;;;;;;;19.94;75.00;94532.94;5035641;28;20192;-78
2021/09/07 08:19:58;;;;;;;10.85;5.35;;;;;;;20.18;74.18;94541.53;5035803;28;20274;-78
2021/09/07 08:22:24;;;;;;;12.80;5.35;;;;;;;20.34;69.96;94532.78;5036017;28;20208;-78
2021/09/07 08:24:51;;;;;;;12.32;5.90;;;;;;;20.48;69.50;94532.44;5035317;28;20248;-78
2021/09/07 08:27:17;;;;;;;9.77;4.93;;;;;;;20.33;67.74;94528.53;5032418;28;20202;-78
2021/09/07 08:29:44;;;;;;;7.88;4.80;;;;;;;20.39;67.86;94532.06;5035514;28;20215;-79
2021/09/07 08:32:11;;;;;;;9.60;5.32;;;;;;;19.89;66.36;94535.50;5035153;28;20609;-78
2021/09/07 08:34:38;;;;;;;7.82;5.05;;;;;;;19.69;66.03;94536.72;5035589;28;20551;-77
2021/09/07 08:37:14;;;;;;;8.05;4.15;;;;;;;19.96;64.00;94531.66;5035201;28;20212;-79
2021/09/07 08:39:41;;;;;;;8.35;4.78;;;;;;;19.96;65.82;94536.94;5034853;28;20570;-78
2021/09/07 08:42:11;;;;;;;11.25;4.35;;;;;;;20.09;63.71;94537.69;5035404;28;20220;-78
2021/09/07 08:44:44;;;;;;;9.13;4.70;;;;;;;20.07;64.72;94543.22;5035127;28;20200;-79
2021/09/07 08:47:13;;;;;;;10.93;4.70;;;;;;;20.36;63.65;94531.75;5035584;28;20211;-78
2021/09/07 08:49:42;;;;;;;8.13;5.13;;;;;;;20.25;62.38;94536.06;5035404;28;20208;-78
2021/09/07 08:52:11;;;;;;;6.45;4.07;;;;;;;20.39;64.37;94541.88;5035256;28;20204;-77
2021/09/07 08:54:37;;;;;;;8.55;4.50;;;;;;;20.46;64.20;94534.53;5035214;28;20208;-78
2021/09/07 08:57:04;;;;;;;7.95;4.53;;;;;;;20.52;63.51;94539.66;5035062;28;20207;-78
2021/09/07 08:59:31;;;;;;;10.02;4.47;;;;;;;20.52;58.72;94538.88;5035300;28;20207;-78
2021/09/07 09:02:11;;;;;;;9.10;4.93;;;;;;;20.57;63.73;94538.94;5035296;28;20200;-78
2021/09/07 09:04:37;;;;;;;14.48;4.47;;;;;;;20.44;62.92;94541.94;5035053;28;20258;-78
2021/09/07 09:07:05;;;;;;;6.35;4.35;;;;;;;20.47;61.00;94546.75;5034835;28;20200;-77
2021/09/07 09:09:36;;;;;;;7.07;4.50;;;;;;;20.46;58.70;94537.19;5034869;28;20200;-76
2021/09/07 09:12:05;;;;;;;8.15;4.35;;;;;;;20.37;62.85;94546.59;5035092;28;20204;-77
2021/09/07 09:14:37;;;;;;;7.13;4.32;;;;;;;20.42;61.58;94546.69;5034915;28;20254;-77
2021/09/07 09:17:25;;;;;;;10.27;4.97;;;;;;;20.43;62.02;94545.63;5034928;28;20287;-79
2021/09/07 09:19:53;;;;;;;7.13;4.05;;;;;;;20.23;62.18;94546.91;5034644;28;20601;-78
2021/09/07 09:22:22;;;;;;;7.38;4.57;;;;;;;20.47;60.04;94534.28;5034868;28;20207;-77
2021/09/07 09:24:49;;;;;;;7.05;4.47;;;;;;;20.58;60.44;94540.53;5029215;28;20232;-77
2021/09/07 09:27:15;;;;;;;9.05;4.40;;;;;;;20.50;59.87;94536.47;5034584;28;20531;-78
2021/09/07 09:29:43;;;;;;;7.65;4.43;;;;;;;20.28;60.23;94536.41;5034070;28;20211;-79
2021/09/07 09:32:11;;;;;;;8.02;4.60;;;;;;;20.13;57.33;94546.75;5034432;28;20208;-76
2021/09/07 09:34:39;;;;;;;7.55;4.68;;;;;;;20.30;60.08;94544.09;5034491;28;20258;-76
2021/09/07 09:37:07;;;;;;;7.47;3.92;;;;;;;20.43;62.40;94545.63;5034613;28;20204;-76
2021/09/07 09:39:46;;;;;;;7.32;3.95;;;;;;;20.63;58.62;94545.16;5034540;28;20212;-77
2021/09/07 09:42:23;;;;;;;9.70;4.50;;;;;;;20.78;58.19;94537.38;5034383;28;20196;-78
2021/09/07 09:44:50;;;;;;;8.35;4.82;;;;;;;20.87;58.55;94535.94;5034046;28;20196;-77
2021/09/07 09:47:34;;;;;;;7.00;4.32;;;;;;;20.94;56.76;94534.94;5034136;28;20335;-77
2021/09/07 09:50:01;;;;;;;10.57;4.00;;;;;;;21.12;56.23;94536.50;5033963;28;20741;-77
2021/09/07 09:52:28;;;;;;;8.63;4.60;;;;;;;21.08;57.30;94533.53;5034164;28;20223;-77
2021/09/07 09:54:57;;;;;;;7.65;3.88;;;;;;;21.16;54.62;94524.31;5034202;28;20226;-78
2021/09/07 09:57:23;;;;;;;7.28;4.63;;;;;;;21.28;57.19;94535.59;5033908;28;20200;-76
2021/09/07 09:59:53;;;;;;;8.38;4.30;;;;;;;21.33;54.10;94533.00;5034179;28;20662;-76
2021/09/07 10:02:19;;;;;;;6.43;4.03;;;;;;;21.33;56.16;94530.34;5034036;28;20252;-76
2021/09/07 10:04:46;;;;;;;6.68;4.50;;;;;;;21.11;57.57;94525.06;5033994;28;20200;-77
2021/09/07 10:07:14;;;;;;;8.80;4.22;;;;;;;21.20;57.01;94528.91;5033831;28;20677;-76
2021/09/07 10:09:42;;;;;;;6.95;4.63;;;;;;;21.37;60.32;94518.19;5033699;28;20736;-77
2021/09/07 10:12:14;;;;;;;8.75;4.22;;;;;;;21.38;58.37;94527.78;5033804;28;20650;-77
2021/09/07 10:14:50;;;;;;;7.10;4.35;;;;;;;21.41;57.69;94526.47;5033648;28;20650;-76
2021/09/07 10:17:24;;;;;;;7.95;4.13;;;;;;;21.37;54.13;94528.03;5033721;28;20287;-76
2021/09/07 10:19:59;;;;;;;8.68;4.20;;;;;;;21.38;57.42;94522.47;5033655;28;20208;-75
2021/09/07 10:25:48;;;;;;;7.45;4.30;;;;;;;21.28;55.28;94518.88;5009552;28;20721;-76
2021/09/07 10:28:30;;;;;;;7.78;4.68;;;;;;;21.28;54.54;94514.34;5013784;28;20205;-76
2021/09/07 10:31:02;;;;;;;5.88;4.00;;;;;;;21.56;56.36;94507.25;5014030;28;20255;-76
2021/09/07 10:33:40;;;;;;;7.10;4.63;;;;;;;21.64;54.38;94509.47;5013869;28;20223;-75
2021/09/07 10:36:18;;;;;;;6.20;4.22;;;;;;;21.40;54.33;94512.38;5013821;28;20205;-77
2021/09/07 10:38:46;;;;;;;7.82;4.30;;;;;;;21.42;54.22;94512.94;5013571;28;20211;-78
2021/09/07 10:41:44;;;;;;;6.90;4.60;;;;;;;21.70;55.53;94504.97;5013391;28;20211;-78
2021/09/07 10:44:23;;;;;;;7.07;4.30;;;;;;;22.07;57.73;94510.38;5013521;28;20215;-77
2021/09/07 10:47:00;;;;;;;6.85;4.20;;;;;;;22.28;52.23;94511.34;5013472;28;20238;-78
2021/09/07 10:49:28;;;;;;;6.82;3.83;;;;;;;22.33;51.77;94508.72;5013422;28;20224;-77
2021/09/07 10:52:12;;;;;;;5.78;3.75;;;;;;;22.02;48.59;94501.56;5013549;28;20263;-77
2021/09/07 10:54:55;;;;;;;7.40;4.43;;;;;;;22.04;50.62;94494.13;5013468;28;20201;-77
2021/09/07 10:57:51;;;;;;;9.20;4.57;;;;;;;22.05;49.61;94506.34;5013330;28;20201;-76
2021/09/07 11:00:39;;;;;;;5.47;3.50;;;;;;;22.13;50.39;94503.22;5012994;28;20689;-77
2021/09/07 11:03:09;;;;;;;6.72;3.47;;;;;;;22.53;50.79;94497.41;5013420;28;20205;-76
2021/09/07 11:05:38;;;;;;;5.63;3.95;;;;;;;22.24;47.23;94499.56;5013350;28;20224;-76
2021/09/07 11:08:05;;;;;;;6.35;3.85;;;;;;;22.29;50.47;94498.84;5013284;28;20208;-77
2021/09/07 11:10:34;;;;;;;6.95;3.83;;;;;;;22.16;49.09;94497.38;5013387;28;20210;-77
2021/09/07 11:13:02;;;;;;;5.85;4.00;;;;;;;22.42;50.64;94490.41;5013099;28;20324;-76
2021/09/07 11:15:32;;;;;;;5.35;3.70;;;;;;;22.62;45.90;94497.72;5013266;28;20209;-76
2021/09/07 11:18:01;;;;;;;7.10;4.30;;;;;;;22.29;45.26;94501.50;5023153;28;20207;-77
2021/09/07 11:20:33;;;;;;;4.88;3.20;;;;;;;22.40;44.40;94492.53;5032922;28;20208;-77
2021/09/07 11:23:07;;;;;;;6.80;3.60;;;;;;;22.27;43.72;94498.28;5032524;28;20243;-76
2021/09/07 11:25:34;;;;;;;5.82;3.70;;;;;;;22.38;46.39;94494.63;5032521;28;20216;-76
2021/09/07 11:28:03;;;;;;;5.88;3.85;;;;;;;22.46;44.38;94496.81;5032769;28;20203;-76
2021/09/07 11:30:30;;;;;;;6.03;3.50;;;;;;;;;;5032675;28;20200;-76